KMIC/MIC METAR and TAF weather

Enter ICAO airport designator
Station Type Date Time Source
KMIC METAR 2019/02/16 17:53 UTC NOAA

KMIC 161753Z 15003KT 10SM FEW120 M10/M14 A3013 RMK AO2 SLP223 T11001144 11094 21211 56008


Station Type Date Time Source
KMIC Decoded METAR 2019/02/16 17:53 UTC NOAA

CRYSTAL AIRPORT, MN, United States (KMIC) 45-04N 093-21W 265M
Feb 16, 2019 - 12:53 PM EST / 2019.02.16 1753 UTC
Wind: from the SSE (150 degrees) at 3 MPH (3 KT):0
Visibility: 10 mile(s):0
Sky conditions: mostly clear
Temperature: 14.0 F (-10.0 C)
Dew Point: 6.1 F (-14.4 C)
Relative Humidity: 70%
Pressure (altimeter): 30.13 in. Hg (1020 hPa)
Pressure tendency: 0.02 inches (0.8 hPa) lower than three hours ago
ob: KMIC 161753Z 15003KT 10SM FEW120 M10/M14 A3013 RMK AO2 SLP223 T11001144 11094 21211 56008
cycle: 18

Station Type Date Time Source
KMIC TAF UTC NOAA

Error!


Example: see airport list